Time;durP1;ratioP1;P1;durP2;ratioP2;P2;SDS_P1;SDS_P2;PMS_P1;PMS_P2;Temp;Humidity;BMP_temperature;BMP_pressure;BME280_temperature;BME280_humidity;BME280_pressure;Samples;Min_cycle;Max_cycle;Signal;HPM_P1;HPM_P2
2023/04/08 00:01:03;;;;;;;42.10;20.17;;;;;;;12.36;61.70;102158.66;4903197;28;119603;-70
2023/04/08 00:03:32;;;;;;;48.75;20.38;;;;;;;12.35;61.62;102152.47;4908088;28;119368;-71
2023/04/08 00:06:01;;;;;;;44.88;20.52;;;;;;;12.36;61.63;102156.00;4889336;28;123789;-71
2023/04/08 00:08:29;;;;;;;47.25;19.60;;;;;;;12.34;61.62;102156.06;4906762;28;123924;-71
2023/04/08 00:10:56;;;;;;;46.72;20.33;;;;;;;12.35;61.78;102156.91;4902716;28;119200;-71
2023/04/08 00:13:25;;;;;;;53.45;21.52;;;;;;;12.34;61.89;102160.47;4906397;28;119432;-71
2023/04/08 00:15:52;;;;;;;48.03;22.00;;;;;;;12.35;61.66;102164.88;4908050;28;124052;-71
2023/04/08 00:18:19;;;;;;;46.90;22.02;;;;;;;12.35;61.91;102156.91;4904326;28;124570;-71
2023/04/08 00:20:47;;;;;;;46.35;20.77;;;;;;;12.35;61.93;102151.59;4903883;28;119345;-71
2023/04/08 00:23:15;;;;;;;47.78;22.00;;;;;;;12.37;62.01;102160.38;4908369;28;119108;-71
2023/04/08 00:25:42;;;;;;;48.00;21.73;;;;;;;12.37;62.09;102155.06;4907418;28;124643;-71
2023/04/08 00:28:10;;;;;;;46.83;21.30;;;;;;;12.37;61.90;102155.06;4896303;28;122957;-71
2023/04/08 00:30:37;;;;;;;50.28;22.58;;;;;;;12.38;62.02;102162.16;4904407;28;119375;-71
2023/04/08 00:33:04;;;;;;;48.92;21.70;;;;;;;12.37;62.03;102160.38;4892016;28;117922;-71
2023/04/08 00:35:31;;;;;;;48.22;22.23;;;;;;;12.38;62.08;102167.47;4909478;28;123448;-70
2023/04/08 00:37:59;;;;;;;45.38;22.67;;;;;;;12.38;61.94;102162.16;4905974;28;124188;-71
2023/04/08 00:40:27;;;;;;;52.38;22.13;;;;;;;12.39;61.91;102163.88;4903646;28;120285;-70
2023/04/08 00:42:56;;;;;;;45.25;22.55;;;;;;;12.40;61.96;102162.97;4905391;28;118816;-71
2023/04/08 00:45:23;;;;;;;43.00;22.33;;;;;;;12.41;61.91;102167.34;4911863;28;123096;-71
2023/04/08 00:47:51;;;;;;;49.08;22.40;;;;;;;12.42;61.93;102174.41;4906318;28;124115;-71
2023/04/08 00:50:19;;;;;;;47.13;22.83;;;;;;;12.44;61.98;102177.88;4906164;28;119513;-71
2023/04/08 00:52:46;;;;;;;51.95;23.70;;;;;;;12.47;61.97;102183.13;4907306;28;118526;-71
2023/04/08 00:55:13;;;;;;;46.08;22.48;;;;;;;12.48;62.01;102174.22;4892495;28;123026;-71
2023/04/08 00:57:41;;;;;;;53.10;22.30;;;;;;;12.50;61.92;102177.69;4905921;28;122968;-71
2023/04/08 01:00:09;;;;;;;53.65;22.58;;;;;;;12.49;61.76;102181.28;4903466;28;120523;-71
2023/04/08 01:02:42;;;;;;;48.95;23.90;;;;;;;12.48;62.02;102179.53;4905016;28;119612;-71
2023/04/08 01:05:40;;;;;;;47.63;22.42;;;;;;;12.48;61.96;102179.53;4902397;28;123967;-71
2023/04/08 01:08:10;;;;;;;44.05;23.63;;;;;;;12.49;61.84;102175.06;4890141;28;123114;-71
2023/04/08 01:10:41;;;;;;;46.53;21.90;;;;;;;12.51;61.94;102178.53;4902264;28;119390;-71
2023/04/08 01:13:13;;;;;;;47.35;23.02;;;;;;;12.51;61.98;102174.13;4905826;28;119033;-71
2023/04/08 01:15:43;;;;;;;43.22;22.42;;;;;;;12.52;61.83;102175.84;4905433;28;122975;-71
2023/04/08 01:18:12;;;;;;;47.97;22.40;;;;;;;12.54;61.98;102179.31;4891602;28;123023;-70
2023/04/08 01:20:41;;;;;;;46.38;23.23;;;;;;;12.56;61.82;102176.63;4905825;28;120094;-73
2023/04/08 01:23:19;;;;;;;46.72;23.27;;;;;;;12.56;61.75;102180.13;4891380;28;118207;-71
2023/04/08 01:25:52;;;;;;;40.25;22.27;;;;;;;12.55;61.85;102181.06;4905148;28;124687;-71
2023/04/08 01:28:23;;;;;;;42.88;22.27;;;;;;;12.55;61.58;102181.06;4905159;28;122681;-71
2023/04/08 01:30:56;;;;;;;48.72;24.33;;;;;;;12.54;61.86;102176.66;4902017;28;119372;-71
2023/04/08 01:33:27;;;;;;;43.78;22.60;;;;;;;12.57;61.75;102184.53;4909680;28;120340;-71
2023/04/08 01:35:56;;;;;;;46.80;24.33;;;;;;;12.57;61.83;102186.34;4891274;28;124450;-71
2023/04/08 01:38:25;;;;;;;45.10;22.75;;;;;;;12.59;61.70;102188.03;4908655;28;124197;-71
2023/04/08 01:41:14;;;;;;;44.35;22.77;;;;;;;12.58;61.62;102191.63;4907884;28;119460;-71
2023/04/08 01:43:49;;;;;;;41.90;22.75;;;;;;;12.59;61.63;102188.03;4911615;28;120412;-71
2023/04/08 01:46:21;;;;;;;44.33;22.98;;;;;;;12.57;61.73;102189.88;4895130;28;124373;-71
2023/04/08 01:49:03;;;;;;;50.42;24.17;;;;;;;12.58;61.60;102194.28;4909870;28;123762;-70
2023/04/08 01:51:42;;;;;;;41.53;23.10;;;;;;;12.56;61.44;102190.75;4907779;28;119287;-71
2023/04/08 01:54:17;;;;;;;52.40;23.30;;;;;;;12.55;61.53;102197.00;4909028;28;118069;-70
2023/04/08 01:59:49;;;;;;;40.40;21.85;;;;;;;12.50;61.46;102198.94;4886046;28;123157;-73
2023/04/08 02:02:19;;;;;;;39.17;22.83;;;;;;;12.48;61.55;102200.78;4898310;28;118917;-72
2023/04/08 02:04:47;;;;;;;36.55;20.83;;;;;;;12.46;61.46;102197.31;4884421;28;118869;-71
2023/04/08 02:07:16;;;;;;;39.03;20.85;;;;;;;12.47;61.40;102199.06;4902486;28;123928;-72
2023/04/08 02:09:47;;;;;;;38.78;20.83;;;;;;;12.45;61.37;102200.88;4880099;28;124203;-72
2023/04/08 02:12:14;;;;;;;40.85;21.38;;;;;;;12.45;61.30;102192.88;4902045;28;118392;-71
2023/04/08 02:14:42;;;;;;;37.35;19.70;;;;;;;12.43;61.31;102197.38;4884857;28;118745;-71
2023/04/08 02:17:45;;;;;;;35.97;20.55;;;;;;;12.42;61.24;102193.88;4891601;28;122879;-72
2023/04/08 02:20:22;;;;;;;38.53;20.08;;;;;;;12.41;61.26;102199.22;4884077;28;124298;-72
2023/04/08 02:23:02;;;;;;;36.63;20.38;;;;;;;12.39;61.17;102207.22;4884158;28;119186;-71
2023/04/08 02:25:33;;;;;;;34.63;19.38;;;;;;;12.38;61.12;102199.34;4885276;28;118114;-71
2023/04/08 02:28:05;;;;;;;32.65;19.95;;;;;;;12.36;61.03;102206.50;4883777;28;124296;-71
2023/04/08 02:30:34;;;;;;;34.40;20.10;;;;;;;12.34;61.13;102202.97;4897694;28;122998;-72
2023/04/08 02:33:06;;;;;;;34.53;19.77;;;;;;;12.32;61.12;102205.72;4874130;28;118247;-72
2023/04/08 02:35:35;;;;;;;33.30;19.58;;;;;;;12.31;61.07;102203.94;4898859;28;118215;-72
2023/04/08 02:38:03;;;;;;;35.95;19.95;;;;;;;12.29;60.97;102207.59;4893668;28;123258;-72
2023/04/08 02:40:32;;;;;;;34.30;19.52;;;;;;;12.27;60.96;102213.81;4887874;28;122841;-72
2023/04/08 02:43:02;;;;;;;37.08;19.23;;;;;;;12.25;60.94;102210.31;4899030;28;118352;-72
2023/04/08 02:45:32;;;;;;;32.80;18.88;;;;;;;12.23;60.93;102211.31;4886678;28;119226;-72
2023/04/08 02:48:00;;;;;;;30.73;18.33;;;;;;;12.21;60.82;102208.69;4898268;28;123021;-71
2023/04/08 02:50:28;;;;;;;33.30;18.90;;;;;;;12.19;60.99;102207.84;4878781;28;123994;-72
2023/04/08 02:52:55;;;;;;;30.33;18.33;;;;;;;12.17;60.96;102201.72;4897781;28;118560;-71
2023/04/08 02:55:23;;;;;;;32.83;19.17;;;;;;;12.16;60.92;102205.28;4889875;28;118063;-72
2023/04/08 02:57:50;;;;;;;33.67;19.67;;;;;;;12.14;60.88;102201.81;4879966;28;124018;-72
2023/04/08 03:00:17;;;;;;;34.80;20.48;;;;;;;12.14;60.94;102206.25;4886901;28;123864;-71
2023/04/08 03:02:46;;;;;;;33.95;19.92;;;;;;;12.11;60.83;102207.22;4885909;28;119267;-71
2023/04/08 03:05:15;;;;;;;36.70;20.65;;;;;;;12.11;60.79;102217.84;4883347;28;119013;-72
2023/04/08 03:07:42;;;;;;;36.90;21.75;;;;;;;12.08;60.79;102212.63;4889203;28;124137;-71
2023/04/08 03:10:09;;;;;;;35.63;20.85;;;;;;;12.04;60.84;102210.97;4882548;28;124275;-71
2023/04/08 03:12:37;;;;;;;32.28;19.50;;;;;;;11.99;60.66;102208.44;4884479;28;120421;-72
2023/04/08 03:15:05;;;;;;;33.22;20.00;;;;;;;11.96;60.34;102218.28;4881820;28;120453;-72
2023/04/08 03:17:33;;;;;;;33.95;18.73;;;;;;;11.93;60.83;102218.38;4882715;28;125114;-72
2023/04/08 03:20:03;;;;;;;32.65;18.80;;;;;;;11.87;60.67;102220.25;4882119;28;124703;-72
2023/04/08 03:22:32;;;;;;;39.38;19.20;;;;;;;11.82;60.54;102222.16;4881785;28;119545;-72
2023/04/08 03:24:59;;;;;;;26.17;15.70;;;;;;;11.75;60.47;102220.59;4899295;28;118008;-72
2023/04/08 03:27:27;;;;;;;23.77;15.35;;;;;;;11.68;60.49;102213.72;4900994;28;123253;-72
2023/04/08 03:29:54;;;;;;;24.83;15.00;;;;;;;11.61;60.47;102217.47;4885923;28;123944;-72
2023/04/08 03:32:25;;;;;;;27.63;15.75;;;;;;;11.56;60.49;102214.03;4875646;28;120161;-72
2023/04/08 03:34:52;;;;;;;157.73;17.45;;;;;;;11.50;60.49;102215.94;4886809;28;119868;-72
2023/04/08 03:37:20;;;;;;;161.07;18.30;;;;;;;11.46;60.71;102219.59;4887027;28;124204;-72
2023/04/08 03:39:47;;;;;;;423.45;20.02;;;;;;;11.42;60.74;102222.38;4889978;28;123912;-72
2023/04/08 03:42:16;;;;;;;324.13;15.93;;;;;;;11.37;60.69;102230.44;4880900;28;119381;-72
2023/04/08 03:44:44;;;;;;;207.65;14.60;;;;;;;11.33;60.80;102226.16;4878323;28;119885;-72
2023/04/08 03:47:11;;;;;;;357.73;18.85;;;;;;;11.28;60.85;102226.28;4879911;28;124376;-72
2023/04/08 03:49:38;;;;;;;66.80;15.75;;;;;;;11.24;60.82;102223.72;4888958;28;123077;-72
2023/04/08 03:52:06;;;;;;;64.93;15.13;;;;;;;11.20;61.07;102230.03;4883113;28;119060;-71
2023/04/08 03:54:33;;;;;;;28.33;14.45;;;;;;;11.16;61.16;102231.88;4880877;28;117963;-71
2023/04/08 03:57:04;;;;;;;25.35;14.02;;;;;;;11.14;61.04;102238.13;4885797;28;124626;-72
2023/04/08 03:59:32;;;;;;;76.15;14.07;;;;;;;11.12;61.18;102232.00;4884291;28;124179;-72
2023/04/08 04:02:00;;;;;;;26.45;13.75;;;;;;;11.09;61.09;102241.78;4884153;28;120661;-72
2023/04/08 04:04:28;;;;;;;24.02;14.45;;;;;;;11.07;61.34;102235.63;4884667;28;120059;-71
2023/04/08 04:06:55;;;;;;;23.52;13.90;;;;;;;11.07;61.22;102232.97;4880381;28;123869;-71
2023/04/08 04:09:22;;;;;;;21.15;13.25;;;;;;;11.07;61.27;102240.91;4879047;28;124695;-72
2023/04/08 04:11:50;;;;;;;22.05;13.38;;;;;;;11.08;61.25;102240.03;4880742;28;119476;-71
2023/04/08 04:14:17;;;;;;;28.90;16.60;;;;;;;11.08;61.30;102245.31;4884988;28;119444;-71
2023/04/08 04:16:44;;;;;;;30.52;17.88;;;;;;;11.10;61.42;102243.50;4881493;28;127092;-71
2023/04/08 04:19:12;;;;;;;30.02;16.90;;;;;;;11.12;61.55;102245.25;4901255;28;122808;-71
2023/04/08 04:21:39;;;;;;;39.55;20.25;;;;;;;11.14;61.59;102248.75;4877991;28;119744;-71
2023/04/08 04:24:07;;;;;;;39.85;17.05;;;;;;;11.14;61.56;102254.91;4888382;28;119176;-71
2023/04/08 04:26:34;;;;;;;105.22;18.40;;;;;;;11.13;61.63;102254.94;4880504;28;124065;-71
2023/04/08 04:29:01;;;;;;;117.55;17.20;;;;;;;11.10;61.75;102253.25;4885583;28;124627;-71
2023/04/08 04:31:28;;;;;;;63.92;17.88;;;;;;;11.07;61.73;102259.47;4880429;28;119377;-71
2023/04/08 04:33:56;;;;;;;306.58;20.38;;;;;;;11.06;61.97;102265.72;4900251;28;119397;-71
2023/04/08 04:36:23;;;;;;;195.73;18.60;;;;;;;11.06;61.81;102271.00;4883283;28;123969;-71
2023/04/08 04:38:50;;;;;;;310.17;19.08;;;;;;;11.06;62.07;102260.41;4888494;28;123609;-71
2023/04/08 04:41:18;;;;;;;451.38;23.13;;;;;;;11.04;62.09;102270.19;4877763;28;118625;-71
2023/04/08 04:43:45;;;;;;;388.92;22.60;;;;;;;11.04;61.94;102269.31;4882344;28;119073;-72
2023/04/08 04:46:12;;;;;;;331.23;22.45;;;;;;;11.01;62.07;102272.88;4882313;28;124046;-72
2023/04/08 04:48:42;;;;;;;95.18;20.15;;;;;;;11.00;62.19;102272.91;4882202;28;123796;-73
2023/04/08 04:51:09;;;;;;;264.85;21.35;;;;;;;11.00;62.45;102279.13;4880188;28;120608;-72
2023/04/08 04:53:36;;;;;;;156.07;22.50;;;;;;;11.01;62.45;102280.84;4885700;28;119977;-71
2023/04/08 04:56:04;;;;;;;57.40;17.02;;;;;;;11.02;62.62;102272.00;4879661;28;124611;-71
2023/04/08 04:58:31;;;;;;;98.57;19.63;;;;;;;11.04;62.46;102280.78;4879430;28;123897;-71
2023/04/08 05:00:58;;;;;;;161.55;20.33;;;;;;;11.07;62.46;102283.34;4883056;28;119161;-71
2023/04/08 05:03:25;;;;;;;75.43;22.80;;;;;;;11.10;62.53;102285.94;4884415;28;119201;-71
2023/04/08 05:05:53;;;;;;;131.57;23.13;;;;;;;11.13;62.34;102284.13;4889978;28;123060;-72
2023/04/08 05:08:21;;;;;;;85.95;22.38;;;;;;;11.15;62.68;102277.00;4887598;28;122939;-71
2023/04/08 05:10:49;;;;;;;66.95;23.40;;;;;;;11.19;62.45;102289.25;4888538;28;120027;-72
2023/04/08 05:13:17;;;;;;;67.43;24.30;;;;;;;11.19;62.70;102283.94;4882936;28;118962;-72
2023/04/08 05:15:44;;;;;;;92.40;24.20;;;;;;;11.20;62.74;102296.31;4881397;28;124805;-71
2023/04/08 05:18:15;;;;;;;79.43;24.70;;;;;;;11.19;62.69;102300.75;4886816;28;124040;-72
2023/04/08 05:20:42;;;;;;;74.38;24.63;;;;;;;11.21;62.79;102303.38;4881711;28;119673;-73
2023/04/08 05:23:09;;;;;;;101.03;24.52;;;;;;;11.23;62.71;102312.16;4888379;28;119027;-72
2023/04/08 05:25:37;;;;;;;153.35;23.73;;;;;;;11.24;62.93;102308.59;4888072;28;123445;-72
2023/04/08 05:28:06;;;;;;;81.35;23.92;;;;;;;11.24;62.85;102308.59;4873329;28;123119;-71
2023/04/08 05:30:33;;;;;;;52.63;23.90;;;;;;;11.27;62.84;102313.84;4885178;28;120120;-71
2023/04/08 05:33:01;;;;;;;45.88;22.90;;;;;;;11.28;62.99;102311.16;4881795;28;119099;-71
2023/04/08 05:35:28;;;;;;;117.97;24.85;;;;;;;11.31;62.89;102315.50;4885810;28;123953;-71
2023/04/08 05:37:56;;;;;;;62.55;23.67;;;;;;;11.33;62.93;102318.97;4879175;28;124035;-73
2023/04/08 05:40:24;;;;;;;262.17;27.27;;;;;;;11.34;62.90;102326.03;4883707;28;120257;-73
2023/04/08 05:42:51;;;;;;;246.48;24.15;;;;;;;11.33;62.76;102329.59;4887847;28;120123;-73
2023/04/08 05:45:19;;;;;;;226.25;22.17;;;;;;;11.29;62.56;102335.88;4904007;28;125281;-73
2023/04/08 05:47:46;;;;;;;191.48;19.90;;;;;;;11.18;62.40;102330.81;4883990;28;124459;-73
2023/04/08 05:50:14;;;;;;;279.60;22.63;;;;;;;11.07;62.54;102328.41;4901141;28;119596;-73
2023/04/08 05:52:44;;;;;;;131.00;18.33;;;;;;;11.00;62.67;102337.44;4882354;28;118986;-74
2023/04/08 05:55:13;;;;;;;159.55;18.05;;;;;;;10.94;62.72;102332.25;4887600;28;124676;-73
2023/04/08 05:57:41;;;;;;;136.15;19.10;;;;;;;10.89;62.50;102329.72;4880656;28;123662;-74
2023/04/08 06:00:09;;;;;;;147.82;18.40;;;;;;;10.87;62.98;102335.97;4883276;28;120151;-73
2023/04/08 06:02:38;;;;;;;77.18;17.02;;;;;;;10.83;62.86;102334.28;4879591;28;119483;-73
2023/04/08 06:05:06;;;;;;;156.32;18.02;;;;;;;10.81;62.89;102341.38;4891771;28;124253;-73
2023/04/08 06:07:34;;;;;;;88.38;16.50;;;;;;;10.81;63.05;102342.28;4879285;28;123956;-72
2023/04/08 06:10:01;;;;;;;204.93;19.58;;;;;;;10.81;63.10;102347.59;4889340;28;119398;-73
2023/04/08 06:12:29;;;;;;;68.32;15.98;;;;;;;10.80;63.00;102337.00;4903411;28;118791;-73
2023/04/08 06:14:56;;;;;;;129.40;17.15;;;;;;;10.79;63.09;102348.50;4880242;28;123927;-74
2023/04/08 06:17:23;;;;;;;119.07;16.98;;;;;;;10.76;62.99;102359.19;4884338;28;124312;-73
2023/04/08 06:19:51;;;;;;;75.32;14.77;;;;;;;10.71;62.88;102357.50;4884275;28;119557;-73
2023/04/08 06:22:18;;;;;;;65.82;15.00;;;;;;;10.67;62.88;102355.81;4888875;28;119091;-73
2023/04/08 06:24:47;;;;;;;101.07;15.40;;;;;;;10.64;62.97;102365.59;4886520;28;124146;-74
2023/04/08 06:27:15;;;;;;;73.40;14.82;;;;;;;10.60;62.62;102364.78;4883706;28;123290;-73
2023/04/08 06:29:42;;;;;;;90.35;15.52;;;;;;;10.58;62.95;102361.31;4887315;28;120021;-73
2023/04/08 06:32:10;;;;;;;91.05;15.68;;;;;;;10.57;63.01;102370.16;4888868;28;122245;-71
2023/04/08 06:34:37;;;;;;;157.57;16.73;;;;;;;10.54;63.15;102370.22;4893529;28;124347;-73
2023/04/08 06:37:07;;;;;;;65.28;14.77;;;;;;;10.52;63.10;102367.59;4879070;28;124073;-72
2023/04/08 06:39:35;;;;;;;67.75;14.45;;;;;;;10.51;63.18;102372.94;4886935;28;119363;-73
2023/04/08 06:42:03;;;;;;;116.47;15.10;;;;;;;10.50;63.10;102368.53;4889640;28;117876;-72
2023/04/08 06:45:06;;;;;;;51.83;12.60;;;;;;;10.45;63.09;102376.59;4879222;28;124641;-76
2023/04/08 06:47:35;;;;;;;38.20;12.52;;;;;;;10.45;63.17;102381.00;4890225;28;123262;-73
2023/04/08 06:50:03;;;;;;;97.53;13.98;;;;;;;10.48;63.13;102380.94;4880482;28;119344;-73
2023/04/08 06:52:30;;;;;;;68.80;15.10;;;;;;;10.49;63.40;102387.97;4887180;28;117806;-73
2023/04/08 06:54:57;;;;;;;141.13;16.30;;;;;;;10.51;63.32;102386.19;4889668;28;124629;-71
2023/04/08 06:57:25;;;;;;;116.50;16.50;;;;;;;10.52;63.32;102393.22;4876039;28;124224;-71
2023/04/08 06:59:52;;;;;;;183.82;16.15;;;;;;;10.51;63.07;102391.50;4886287;28;119406;-71
2023/04/08 07:02:21;;;;;;;217.23;17.65;;;;;;;10.52;63.37;102398.53;4882219;28;119463;-71
2023/04/08 07:04:49;;;;;;;152.77;14.93;;;;;;;10.54;63.03;102409.97;4883312;28;124135;-71
2023/04/08 07:07:16;;;;;;;29.35;9.05;;;;;;;10.52;63.07;102414.41;4893245;28;122868;-71
2023/04/08 07:09:45;;;;;;;25.88;9.23;;;;;;;10.49;63.25;102415.34;4886327;28;119629;-71
2023/04/08 07:12:12;;;;;;;25.17;10.40;;;;;;;10.49;63.13;102414.47;4884591;28;119102;-72
2023/04/08 07:14:39;;;;;;;33.53;10.32;;;;;;;10.49;63.17;102414.47;4879777;28;123363;-71
2023/04/08 07:17:07;;;;;;;32.00;10.40;;;;;;;10.50;63.12;102416.22;4887007;28;123795;-71
2023/04/08 07:19:34;;;;;;;41.60;10.65;;;;;;;10.48;63.39;102418.03;4880290;28;120265;-71
2023/04/08 07:22:02;;;;;;;61.15;12.38;;;;;;;10.47;63.03;102421.56;4879027;28;120475;-71
2023/04/08 07:24:29;;;;;;;37.05;12.38;;;;;;;10.47;62.80;102421.56;4877246;28;123987;-71
2023/04/08 07:26:57;;;;;;;43.70;11.95;;;;;;;10.46;62.94;102430.44;4881789;28;123997;-71
2023/04/08 07:29:24;;;;;;;43.85;11.98;;;;;;;10.47;63.07;102433.06;4881112;28;118778;-71
2023/04/08 07:31:51;;;;;;;47.92;11.63;;;;;;;10.47;62.91;102432.16;4881372;28;119862;-71
2023/04/08 07:34:18;;;;;;;56.35;12.20;;;;;;;10.44;62.85;102434.91;4883522;28;125162;-71
2023/04/08 07:36:45;;;;;;;46.28;12.02;;;;;;;10.42;62.78;102436.69;4879149;28;124754;-70
2023/04/08 07:39:12;;;;;;;43.28;12.10;;;;;;;10.41;62.97;102437.59;4881243;28;119566;-71
2023/04/08 07:41:40;;;;;;;52.67;12.77;;;;;;;10.40;62.84;102441.16;4890879;28;118079;-71
2023/04/08 07:44:07;;;;;;;52.92;14.30;;;;;;;10.41;63.09;102437.59;4876293;28;124185;-71
2023/04/08 07:46:40;;;;;;;58.97;13.63;;;;;;;10.42;63.19;102440.22;4881913;28;123766;-71
2023/04/08 07:49:08;;;;;;;137.02;14.68;;;;;;;10.43;63.25;102446.38;4880722;28;119035;-71
2023/04/08 07:51:35;;;;;;;59.13;14.05;;;;;;;10.44;62.92;102440.19;4886239;28;117987;-71
2023/04/08 07:54:02;;;;;;;39.85;14.55;;;;;;;10.45;62.86;102444.56;4890460;28;122867;-76
2023/04/08 07:56:30;;;;;;;65.07;13.88;;;;;;;10.46;63.05;102441.03;4886521;28;124103;-71
2023/04/08 07:58:57;;;;;;;51.45;14.30;;;;;;;10.46;62.84;102447.19;4894089;28;119176;-71
2023/04/08 08:01:24;;;;;;;39.80;15.35;;;;;;;10.48;63.05;102447.16;4898118;28;119740;-71
2023/04/08 08:03:52;;;;;;;37.90;14.95;;;;;;;10.48;62.80;102445.38;4890866;28;123484;-71
2023/04/08 08:06:21;;;;;;;30.08;16.42;;;;;;;10.51;63.13;102444.47;4883473;28;123612;-71
2023/04/08 08:08:48;;;;;;;33.92;14.55;;;;;;;10.54;62.96;102454.13;4881922;28;119121;-71
2023/04/08 08:11:15;;;;;;;28.92;14.80;;;;;;;10.56;62.89;102461.13;4902065;28;119903;-72
2023/04/08 08:13:42;;;;;;;31.23;15.20;;;;;;;10.59;62.55;102457.56;4886302;28;122793;-72
2023/04/08 08:16:11;;;;;;;29.27;14.52;;;;;;;10.61;63.00;102456.63;4893360;28;96786;-72
2023/04/08 08:18:40;;;;;;;34.63;14.70;;;;;;;10.63;62.99;102460.13;4879937;28;119256;-71
2023/04/08 08:21:08;;;;;;;19.02;10.77;;;;;;;10.65;62.83;102463.63;4908148;28;118313;-72
2023/04/08 08:23:37;;;;;;;20.85;10.02;;;;;;;10.68;62.96;102467.97;4889737;28;124576;-72
2023/04/08 08:26:08;;;;;;;24.88;10.82;;;;;;;10.69;62.77;102465.28;4889539;28;124640;-71
2023/04/08 08:28:36;;;;;;;18.52;10.57;;;;;;;10.70;62.84;102477.66;4888371;28;118410;-72
2023/04/08 08:31:04;;;;;;;19.92;10.73;;;;;;;10.74;62.73;102477.56;4885373;28;118964;-72
2023/04/08 08:33:33;;;;;;;23.30;11.55;;;;;;;10.78;62.73;102479.28;4908075;28;125459;-71
2023/04/08 08:36:00;;;;;;;21.65;11.73;;;;;;;10.82;62.88;102480.97;4891142;28;123572;-72
2023/04/08 08:38:30;;;;;;;28.98;12.73;;;;;;;10.88;62.89;102475.53;4885838;28;119237;-72
2023/04/08 08:40:58;;;;;;;23.95;11.60;;;;;;;10.93;62.69;102476.31;4903902;28;119623;-71
2023/04/08 08:43:27;;;;;;;23.58;12.73;;;;;;;11.00;62.75;102483.25;4886544;28;124013;-71
2023/04/08 08:45:54;;;;;;;27.25;13.38;;;;;;;11.06;62.45;102484.91;4900675;28;123692;-72
2023/04/08 08:48:24;;;;;;;35.25;17.95;;;;;;;11.10;62.60;102487.44;4899782;28;118173;-72
2023/04/08 08:50:51;;;;;;;30.63;16.60;;;;;;;11.15;62.55;102473.22;4887027;28;119427;-72
2023/04/08 08:53:19;;;;;;;30.75;15.73;;;;;;;11.20;62.35;102477.53;4883247;28;124611;-73
2023/04/08 08:55:47;;;;;;;28.77;15.23;;;;;;;11.25;62.53;102480.09;4893173;28;124091;-72
2023/04/08 08:58:17;;;;;;;31.85;16.35;;;;;;;11.32;62.42;102486.13;4880640;28;120645;-72
2023/04/08 09:00:45;;;;;;;24.25;13.07;;;;;;;11.42;62.44;102483.25;4875527;28;118821;-72
2023/04/08 09:03:21;;;;;;;26.42;13.55;;;;;;;11.50;62.38;102485.72;4904223;28;123118;-72
2023/04/08 09:05:54;;;;;;;21.08;12.50;;;;;;;11.55;62.27;102489.16;4899179;28;124754;-72
2023/04/08 09:08:43;;;;;;;26.85;13.60;;;;;;;11.60;62.22;102497.00;4894262;28;118948;-72
2023/04/08 09:11:15;;;;;;;32.13;20.88;;;;;;;11.65;62.25;102501.28;4885500;28;119308;-72
2023/04/08 09:13:44;;;;;;;31.20;20.45;;;;;;;11.69;62.13;102502.09;4900213;28;124130;-72
2023/04/08 09:16:16;;;;;;;32.85;20.40;;;;;;;11.75;62.21;102509.91;4908493;28;122949;-72
2023/04/08 09:18:46;;;;;;;30.77;20.42;;;;;;;11.77;62.12;102508.13;4907425;28;118558;-72
2023/04/08 09:21:15;;;;;;;31.90;20.95;;;;;;;11.80;62.00;102510.69;4888442;28;118724;-73
2023/04/08 09:23:46;;;;;;;31.58;21.65;;;;;;;11.85;62.09;102508.78;4900530;28;124012;-72
2023/04/08 09:26:23;;;;;;;33.53;21.38;;;;;;;11.92;62.08;102514.00;4886009;28;125201;-72
2023/04/08 09:29:22;;;;;;;31.95;21.60;;;;;;;11.95;62.05;102513.94;4889025;28;119345;-72
2023/04/08 09:31:55;;;;;;;30.05;21.30;;;;;;;12.01;61.90;102519.09;4885857;28;119362;-72
2023/04/08 09:34:23;;;;;;;32.05;21.92;;;;;;;12.07;61.99;102518.91;4881459;28;125060;-72
2023/04/08 09:36:51;;;;;;;30.48;21.05;;;;;;;12.11;61.82;102523.28;4887348;28;123779;-72
2023/04/08 09:39:19;;;;;;;31.85;22.52;;;;;;;12.18;61.92;102532.81;4892599;28;120439;-72
2023/04/08 09:41:48;;;;;;;33.33;22.83;;;;;;;12.25;61.56;102529.09;4893360;28;119015;-72
2023/04/08 09:44:15;;;;;;;32.25;22.55;;;;;;;12.32;61.43;102521.88;4892539;28;124582;-72
2023/04/08 09:46:49;;;;;;;32.13;22.60;;;;;;;12.43;61.56;102526.88;4883012;28;124131;-72
2023/04/08 09:49:35;;;;;;;33.25;22.60;;;;;;;12.59;61.64;102522.91;4886571;28;118802;-71
2023/04/08 09:52:02;;;;;;;32.10;22.63;;;;;;;12.79;61.68;102513.53;4893130;28;120022;-71
2023/04/08 09:54:51;;;;;;;33.60;24.13;;;;;;;12.97;61.79;102518.34;4896046;28;124141;-72
2023/04/08 09:57:30;;;;;;;33.25;23.27;;;;;;;13.20;61.52;102524.78;4884572;28;122964;-71
2023/04/08 10:00:16;;;;;;;37.17;24.17;;;;;;;13.38;61.47;102513.63;4884620;28;119373;-72
2023/04/08 10:03:13;;;;;;;32.95;23.27;;;;;;;13.57;61.51;102513.09;4893613;28;119093;-72
2023/04/08 10:05:42;;;;;;;33.10;23.92;;;;;;;13.79;61.27;102498.19;4886114;28;124303;-72
2023/04/08 10:08:12;;;;;;;32.30;23.00;;;;;;;13.90;60.74;102504.94;4900872;28;122802;-72
2023/04/08 10:10:40;;;;;;;32.00;23.95;;;;;;;13.95;60.42;102503.88;4897801;28;119704;-72
2023/04/08 10:13:08;;;;;;;30.05;22.80;;;;;;;14.03;59.98;102506.28;4896102;28;120281;-72
2023/04/08 10:15:37;;;;;;;29.05;21.45;;;;;;;14.07;59.61;102497.28;4880803;28;124400;-72
2023/04/08 10:18:04;;;;;;;29.67;22.42;;;;;;;14.10;59.47;102497.16;4890243;28;123656;-72
2023/04/08 10:20:37;;;;;;;28.50;20.73;;;;;;;14.15;59.36;102500.56;4898284;28;119132;-72
2023/04/08 10:23:09;;;;;;;27.80;21.23;;;;;;;14.23;59.64;102492.31;4901281;28;118127;-72
2023/04/08 10:25:41;;;;;;;27.95;20.98;;;;;;;14.35;59.48;102496.34;4886697;28;124144;-72
2023/04/08 10:28:10;;;;;;;30.50;21.40;;;;;;;14.40;59.10;102494.38;4897869;28;123694;-72
2023/04/08 10:30:44;;;;;;;28.25;21.55;;;;;;;14.47;58.96;102495.91;4902359;28;119235;-72
2023/04/08 10:33:21;;;;;;;28.38;22.35;;;;;;;14.54;58.91;102486.78;4887353;28;119034;-72
2023/04/08 10:35:54;;;;;;;28.33;21.20;;;;;;;14.64;58.77;102491.84;4882278;28;124210;-71
2023/04/08 10:38:22;;;;;;;28.77;22.02;;;;;;;14.73;58.36;102491.47;4883672;28;124176;-71
2023/04/08 10:40:50;;;;;;;26.38;21.02;;;;;;;14.81;58.51;102489.41;4890210;28;120400;-72
2023/04/08 10:43:19;;;;;;;29.17;21.23;;;;;;;14.87;58.37;102486.53;4887242;28;120476;-72
2023/04/08 10:45:50;;;;;;;28.52;20.77;;;;;;;14.96;58.41;102480.84;4886806;28;123982;-72
2023/04/08 10:48:21;;;;;;;28.58;21.58;;;;;;;15.10;58.49;102493.66;4904463;28;124494;-72
2023/04/08 10:50:55;;;;;;;25.00;20.20;;;;;;;15.23;57.64;102491.41;4903371;28;119020;-73
2023/04/08 10:53:27;;;;;;;25.05;19.10;;;;;;;15.29;57.31;102484.97;4889509;28;119230;-71
2023/04/08 10:56:11;;;;;;;28.38;19.45;;;;;;;15.31;56.75;102489.31;4886616;28;124100;-71
2023/04/08 10:58:50;;;;;;;24.67;19.35;;;;;;;15.36;56.82;102487.31;4889616;28;122783;-71
2023/04/08 11:01:18;;;;;;;24.52;19.60;;;;;;;15.43;57.13;102484.44;4889601;28;119760;-72
2023/04/08 11:03:45;;;;;;;26.00;20.55;;;;;;;15.50;57.31;102484.13;4891648;28;118952;-72
2023/04/08 11:06:13;;;;;;;26.33;19.83;;;;;;;15.60;56.96;102487.31;4878453;28;124383;-72
2023/04/08 11:08:43;;;;;;;25.85;20.38;;;;;;;15.69;56.90;102484.28;4885193;28;123854;-71
2023/04/08 11:11:11;;;;;;;24.50;19.65;;;;;;;15.76;57.08;102485.81;4890384;28;119384;-72
2023/04/08 11:13:40;;;;;;;23.88;19.52;;;;;;;15.86;57.03;102474.72;4893167;28;118395;-72